createdAt,value
2019-04-27T00:01:56.151Z,90.60
2019-04-27T00:04:28.840Z,91.00
2019-04-27T00:07:11.064Z,91.30
2019-04-27T00:09:50.202Z,91.30
2019-04-27T00:12:22.414Z,91.40
2019-04-27T00:17:44.826Z,91.40
2019-04-27T00:20:12.799Z,91.70
2019-04-27T00:22:43.735Z,91.70
2019-04-27T00:25:13.093Z,91.70
2019-04-27T00:27:43.529Z,91.80
2019-04-27T00:30:13.818Z,91.80
2019-04-27T00:32:45.210Z,91.90
2019-04-27T00:35:15.550Z,91.80
2019-04-27T00:37:45.742Z,91.80
2019-04-27T00:40:24.972Z,91.70
2019-04-27T00:42:54.149Z,91.90
2019-04-27T00:45:23.413Z,92.10
2019-04-27T00:47:58.272Z,92.30
2019-04-27T00:50:23.493Z,92.50
2019-04-27T00:52:53.220Z,92.50
2019-04-27T00:55:23.433Z,92.30
2019-04-27T00:57:53.771Z,92.30
2019-04-27T01:00:33.796Z,92.10
2019-04-27T01:03:13.935Z,92.30
2019-04-27T01:05:43.133Z,92.20
2019-04-27T01:08:13.805Z,92.20
2019-04-27T01:10:45.098Z,92.10
2019-04-27T01:13:13.871Z,92.00
2019-04-27T01:15:43.089Z,92.00
2019-04-27T01:18:15.199Z,91.90
2019-04-27T01:20:42.148Z,91.70
2019-04-27T01:23:10.929Z,91.40
2019-04-27T01:25:59.734Z,91.30
2019-04-27T01:28:30.166Z,91.40
2019-04-27T01:31:00.685Z,91.60
2019-04-27T01:33:30.295Z,91.70
2019-04-27T01:35:59.001Z,91.90
2019-04-27T01:38:29.322Z,91.90
2019-04-27T01:40:58.308Z,91.70
2019-04-27T01:43:28.547Z,91.90
2019-04-27T01:46:01.076Z,91.80
2019-04-27T01:48:30.562Z,91.90
2019-04-27T01:51:02.535Z,91.80
2019-04-27T01:53:31.269Z,91.60
2019-04-27T01:55:59.962Z,91.60
2019-04-27T01:58:29.306Z,91.60
2019-04-27T02:01:02.839Z,91.50
2019-04-27T02:03:33.342Z,91.90
2019-04-27T02:06:02.090Z,92.00
2019-04-27T02:08:30.739Z,91.70
2019-04-27T02:10:59.536Z,91.80
2019-04-27T02:13:29.041Z,91.90
2019-04-27T02:15:58.820Z,92.20
2019-04-27T02:18:37.461Z,92.10
2019-04-27T02:20:59.432Z,92.20
2019-04-27T02:23:29.378Z,92.20
2019-04-27T02:25:58.985Z,92.20
2019-04-27T02:28:31.802Z,92.30
2019-04-27T02:31:19.332Z,92.50
2019-04-27T02:33:50.097Z,93.00
2019-04-27T02:36:20.201Z,93.70
2019-04-27T02:38:49.307Z,93.60
2019-04-27T02:41:20.021Z,93.50
2019-04-27T02:43:50.388Z,93.20
2019-04-27T02:46:20.065Z,93.40
2019-04-27T02:48:58.918Z,93.70
2019-04-27T02:51:23.558Z,94.00
2019-04-27T02:53:56.718Z,94.00
2019-04-27T02:56:27.458Z,93.90
2019-04-27T02:58:56.249Z,94.10
2019-04-27T03:01:30.158Z,94.60
2019-04-27T03:04:00.330Z,94.30
2019-04-27T03:06:29.966Z,94.20
2019-04-27T03:09:00.433Z,94.30
2019-04-27T03:11:30.691Z,94.50
2019-04-27T03:14:29.331Z,94.60
2019-04-27T03:16:56.187Z,94.40
2019-04-27T03:19:43.166Z,94.40
2019-04-27T03:22:16.531Z,95.00
2019-04-27T03:25:00.201Z,95.10
2019-04-27T03:27:33.692Z,95.20
2019-04-27T03:30:02.497Z,95.40
2019-04-27T03:32:33.815Z,95.40
2019-04-27T03:35:03.625Z,95.30
2019-04-27T03:37:32.604Z,94.70
2019-04-27T03:40:05.739Z,95.10
2019-04-27T03:42:37.990Z,95.20
2019-04-27T03:45:07.579Z,95.80
2019-04-27T03:47:36.788Z,95.60
2019-04-27T03:50:09.816Z,95.70
2019-04-27T03:52:54.037Z,95.70
2019-04-27T03:55:32.819Z,95.90
2019-04-27T03:58:03.214Z,96.20
2019-04-27T04:00:33.568Z,96.00
2019-04-27T04:03:02.276Z,95.90
2019-04-27T04:05:31.045Z,96.10
2019-04-27T04:08:00.407Z,96.00
2019-04-27T04:10:30.938Z,95.60
2019-04-27T04:13:10.803Z,95.30
2019-04-27T04:15:56.190Z,95.30
2019-04-27T04:18:26.041Z,95.10
2019-04-27T04:20:54.810Z,95.20
2019-04-27T04:23:23.459Z,95.20
2019-04-27T04:25:52.111Z,95.30
2019-04-27T04:28:22.930Z,95.20
2019-04-27T04:30:51.526Z,95.10
2019-04-27T04:33:20.830Z,94.80
2019-04-27T04:35:49.903Z,94.80
2019-04-27T04:38:20.778Z,94.60
2019-04-27T04:40:52.034Z,94.60
2019-04-27T04:43:40.281Z,94.40
2019-04-27T04:46:26.290Z,94.10
2019-04-27T04:48:55.290Z,94.20
2019-04-27T04:51:23.774Z,93.60
2019-04-27T04:53:52.345Z,93.60
2019-04-27T04:56:23.135Z,93.20
2019-04-27T04:58:54.247Z,93.00
2019-04-27T05:01:22.985Z,92.70
2019-04-27T05:03:54.502Z,92.70
2019-04-27T05:06:26.158Z,92.50
2019-04-27T05:08:54.775Z,92.70
2019-04-27T05:11:23.349Z,92.60
2019-04-27T05:13:52.051Z,92.90
2019-04-27T05:16:20.645Z,92.70
2019-04-27T05:18:49.587Z,92.60
2019-04-27T05:21:36.721Z,92.50
2019-04-27T05:24:05.694Z,92.40
2019-04-27T05:26:34.286Z,92.30
2019-04-27T05:29:03.909Z,92.10
2019-04-27T05:31:32.466Z,91.50
2019-04-27T05:34:01.044Z,91.00
2019-04-27T05:36:29.793Z,91.10
2019-04-27T05:38:59.760Z,90.60
2019-04-27T05:41:31.153Z,90.50
2019-04-27T05:44:07.142Z,90.50
2019-04-27T05:46:46.760Z,90.30
2019-04-27T05:49:22.582Z,89.70
2019-04-27T05:51:54.828Z,89.70
2019-04-27T05:54:23.530Z,90.10
2019-04-27T05:56:52.068Z,90.30
2019-04-27T05:59:20.689Z,90.30
2019-04-27T06:01:49.489Z,90.10
2019-04-27T06:04:19.295Z,89.70
2019-04-27T06:06:49.938Z,89.30
2019-04-27T06:09:21.285Z,89.30
2019-04-27T06:11:50.636Z,89.10
2019-04-27T06:14:19.466Z,88.90
2019-04-27T06:16:50.959Z,87.90
2019-04-27T06:19:19.314Z,88.00
2019-04-27T06:21:49.846Z,87.70
2019-04-27T06:24:18.751Z,87.50
2019-04-27T06:26:47.343Z,86.70
2019-04-27T06:29:15.973Z,85.70
2019-04-27T06:31:44.525Z,84.40
2019-04-27T06:34:13.185Z,83.90
2019-04-27T06:36:42.429Z,83.60
2019-04-27T06:39:11.004Z,83.10
2019-04-27T06:41:40.184Z,83.40
2019-04-27T06:44:10.985Z,84.40
2019-04-27T06:46:40.556Z,84.20
2019-04-27T06:49:10.951Z,84.50
2019-04-27T06:51:40.128Z,84.20
2019-04-27T06:54:09.316Z,84.40
2019-04-27T06:56:43.202Z,84.00
2019-04-27T06:59:11.936Z,83.70
2019-04-27T07:01:40.614Z,83.70
2019-04-27T07:04:10.908Z,83.50
2019-04-27T07:06:53.185Z,83.10
2019-04-27T07:09:12.470Z,82.10
2019-04-27T07:11:42.331Z,82.00
2019-04-27T07:14:11.711Z,82.60
2019-04-27T07:16:40.717Z,83.50
2019-04-27T07:19:09.551Z,83.70
2019-04-27T07:21:40.018Z,83.10
2019-04-27T07:24:11.309Z,83.70
2019-04-27T07:26:39.933Z,81.90
2019-04-27T07:29:11.041Z,80.30
2019-04-27T07:31:40.228Z,80.90
2019-04-27T07:34:10.633Z,80.60
2019-04-27T07:36:40.301Z,80.00
2019-04-27T07:39:11.009Z,79.10
2019-04-27T07:41:39.386Z,79.10
2019-04-27T07:44:12.683Z,78.80
2019-04-27T07:46:41.433Z,78.60
2019-04-27T07:49:10.111Z,78.10
2019-04-27T07:51:39.326Z,76.80
2019-04-27T07:54:08.985Z,75.70
2019-04-27T07:56:39.001Z,75.50
2019-04-27T07:59:09.047Z,75.40
2019-04-27T08:01:39.316Z,75.70
2019-04-27T08:04:09.077Z,75.70
2019-04-27T08:06:38.723Z,75.40
2019-04-27T08:09:09.412Z,76.70
2019-04-27T08:11:39.708Z,75.70
2019-04-27T08:14:08.727Z,75.30
2019-04-27T08:16:38.774Z,75.40
2019-04-27T08:19:12.237Z,74.10
2019-04-27T08:21:44.418Z,74.90
2019-04-27T08:24:11.389Z,75.00
2019-04-27T08:26:53.819Z,76.40
2019-04-27T08:29:36.273Z,75.70
2019-04-27T08:32:12.663Z,75.70
2019-04-27T08:34:41.234Z,75.30
2019-04-27T08:37:09.937Z,72.90
2019-04-27T08:39:39.729Z,73.30
2019-04-27T08:42:09.499Z,72.90
2019-04-27T08:44:39.732Z,73.60
2019-04-27T08:47:09.577Z,75.30
2019-04-27T08:49:39.445Z,74.90
2019-04-27T08:52:09.670Z,74.70
2019-04-27T08:54:39.455Z,74.30
2019-04-27T08:57:09.717Z,73.60
2019-04-27T08:59:39.277Z,73.30
2019-04-27T09:02:08.770Z,72.10
2019-04-27T09:04:39.295Z,72.30
2019-04-27T09:07:26.223Z,72.00
2019-04-27T09:09:56.519Z,71.50
2019-04-27T09:12:42.805Z,71.50
2019-04-27T09:15:14.177Z,70.50
2019-04-27T09:17:44.517Z,71.30
2019-04-27T09:20:14.811Z,71.40
2019-04-27T09:22:43.365Z,70.90
2019-04-27T09:25:12.000Z,70.00
2019-04-27T09:27:40.587Z,69.40
2019-04-27T09:30:10.261Z,68.10
2019-04-27T09:32:40.749Z,67.50
2019-04-27T09:35:09.498Z,67.20
2019-04-27T09:37:38.155Z,66.70
2019-04-27T09:40:09.941Z,67.90
2019-04-27T09:42:39.368Z,68.00
2019-04-27T09:45:08.298Z,67.60
2019-04-27T09:47:39.133Z,68.10
2019-04-27T09:50:08.283Z,69.40
2019-04-27T09:52:37.054Z,69.50
2019-04-27T09:55:06.680Z,68.00
2019-04-27T09:57:36.577Z,67.60
2019-04-27T10:00:09.988Z,67.30
2019-04-27T10:02:42.313Z,68.30
2019-04-27T10:05:10.094Z,68.20
2019-04-27T10:07:39.377Z,68.20
2019-04-27T10:10:09.073Z,68.50
2019-04-27T10:12:37.737Z,67.80
2019-04-27T10:15:07.613Z,68.00
2019-04-27T10:17:36.265Z,67.20
2019-04-27T10:20:06.458Z,64.60
2019-04-27T10:22:41.177Z,63.80
2019-04-27T10:25:09.086Z,63.10
2019-04-27T10:27:37.719Z,63.70
2019-04-27T10:30:08.264Z,62.70
2019-04-27T10:32:36.927Z,60.10
2019-04-27T10:35:08.392Z,59.50
2019-04-27T10:37:37.502Z,57.80
2019-04-27T10:40:06.258Z,57.40
2019-04-27T10:42:35.841Z,58.20
2019-04-27T10:45:06.500Z,57.50
2019-04-27T10:47:36.009Z,58.30
2019-04-27T10:50:06.235Z,58.70
2019-04-27T10:52:34.890Z,59.80
2019-04-27T10:55:03.906Z,60.30
2019-04-27T10:57:34.030Z,60.70
2019-04-27T11:00:02.931Z,60.80
2019-04-27T11:02:31.625Z,61.50
2019-04-27T11:05:06.694Z,60.40
2019-04-27T11:07:37.351Z,60.80
2019-04-27T11:10:07.663Z,61.50
2019-04-27T11:12:36.500Z,61.00
2019-04-27T11:15:08.307Z,57.90
2019-04-27T11:17:37.172Z,57.30
2019-04-27T11:20:09.441Z,57.60
2019-04-27T11:22:38.168Z,55.50
2019-04-27T11:25:10.314Z,53.30
2019-04-27T11:27:38.942Z,54.10
2019-04-27T11:30:09.139Z,54.30
2019-04-27T11:32:38.356Z,53.90
2019-04-27T11:35:15.900Z,53.80
2019-04-27T11:37:47.354Z,52.00
2019-04-27T11:40:17.196Z,50.70
2019-04-27T11:42:45.774Z,49.00
2019-04-27T11:45:14.969Z,48.10
2019-04-27T11:47:43.623Z,48.60
2019-04-27T11:50:14.087Z,48.80
2019-04-27T11:52:43.220Z,48.80
2019-04-27T11:55:13.621Z,48.70
2019-04-27T11:57:42.249Z,47.30
2019-04-27T12:00:13.414Z,47.20
2019-04-27T12:02:42.032Z,45.70
2019-04-27T12:05:11.252Z,46.40
2019-04-27T12:07:39.838Z,47.50
2019-04-27T12:10:08.822Z,48.60
2019-04-27T12:12:37.491Z,50.70
2019-04-27T12:15:07.633Z,53.70
2019-04-27T12:17:36.268Z,54.30
2019-04-27T12:20:08.174Z,54.80
2019-04-27T12:22:36.810Z,55.80
2019-04-27T12:25:06.664Z,56.20
2019-04-27T12:27:53.703Z,56.80
2019-04-27T12:30:24.060Z,56.90
2019-04-27T12:32:52.640Z,57.60
2019-04-27T12:35:21.281Z,58.20
2019-04-27T12:37:50.010Z,58.70
2019-04-27T12:40:18.747Z,58.90
2019-04-27T12:42:47.371Z,59.30
2019-04-27T12:45:19.361Z,59.30
2019-04-27T12:47:48.141Z,59.30
2019-04-27T12:50:19.799Z,60.20
2019-04-27T12:52:50.113Z,60.00
2019-04-27T12:55:38.777Z,60.50
2019-04-27T12:58:16.424Z,60.40
2019-04-27T13:00:52.680Z,61.00
2019-04-27T13:03:22.587Z,61.40
2019-04-27T13:05:51.278Z,61.50
2019-04-27T13:08:19.918Z,61.30
2019-04-27T13:10:48.552Z,61.00
2019-04-27T13:13:17.258Z,61.70
2019-04-27T13:15:46.484Z,60.30
2019-04-27T13:18:16.712Z,61.00
2019-04-27T13:20:45.548Z,61.10
2019-04-27T13:23:14.042Z,61.10
2019-04-27T13:25:43.522Z,60.70
2019-04-27T13:28:12.113Z,59.80
2019-04-27T13:30:40.760Z,59.20
2019-04-27T13:33:09.460Z,59.80
2019-04-27T13:35:38.034Z,60.90
2019-04-27T13:38:06.737Z,61.30
2019-04-27T13:40:37.113Z,61.60
2019-04-27T13:43:07.782Z,61.80
2019-04-27T13:45:54.287Z,62.80
2019-04-27T13:48:36.521Z,63.90
2019-04-27T13:51:09.829Z,70.10
2019-04-27T13:53:38.481Z,72.40
2019-04-27T13:56:17.333Z,74.40
2019-04-27T13:58:47.293Z,74.80
2019-04-27T14:01:15.918Z,74.30
2019-04-27T14:03:45.133Z,75.20
2019-04-27T14:06:13.898Z,74.80
2019-04-27T14:08:42.586Z,75.90
2019-04-27T14:11:11.223Z,76.00
2019-04-27T14:13:39.822Z,77.60
2019-04-27T14:16:08.809Z,77.70
2019-04-27T14:18:38.529Z,78.50
2019-04-27T14:21:09.298Z,79.00
2019-04-27T14:23:38.556Z,80.10
2019-04-27T14:26:08.819Z,81.10
2019-04-27T14:28:37.510Z,81.80
2019-04-27T14:31:08.968Z,81.40
2019-04-27T14:33:39.578Z,83.10
2019-04-27T14:36:08.292Z,84.00
2019-04-27T14:38:36.970Z,84.20
2019-04-27T14:41:05.919Z,85.70
2019-04-27T14:43:36.363Z,84.70
2019-04-27T14:46:05.141Z,85.60
2019-04-27T14:48:34.598Z,85.60
2019-04-27T14:51:03.240Z,85.80
2019-04-27T14:53:31.889Z,86.50
2019-04-27T14:56:02.157Z,86.50
2019-04-27T14:58:34.870Z,85.90
2019-04-27T15:01:03.517Z,85.70
2019-04-27T15:03:32.182Z,85.50
2019-04-27T15:06:00.874Z,84.30
2019-04-27T15:08:29.580Z,82.90
2019-04-27T15:10:58.782Z,81.80
2019-04-27T15:13:27.488Z,81.70
2019-04-27T15:16:15.505Z,80.00
2019-04-27T15:19:04.215Z,79.20
2019-04-27T15:21:38.268Z,77.20
2019-04-27T15:24:11.995Z,77.40
2019-04-27T15:26:35.609Z,78.90
2019-04-27T15:29:05.835Z,78.20
2019-04-27T15:31:40.824Z,78.70
2019-04-27T15:34:17.015Z,79.80
2019-04-27T15:37:03.288Z,80.70
2019-04-27T15:39:48.956Z,80.90
2019-04-27T15:42:23.178Z,80.70
2019-04-27T15:44:51.895Z,80.90
2019-04-27T15:47:22.677Z,82.00
2019-04-27T15:49:54.651Z,81.40
2019-04-27T15:52:25.574Z,81.60
2019-04-27T15:54:52.002Z,81.60
2019-04-27T15:57:20.898Z,80.90
2019-04-27T15:59:49.648Z,82.60
2019-04-27T16:02:18.629Z,83.00
2019-04-27T16:04:49.814Z,83.60
2019-04-27T16:07:24.670Z,83.00
2019-04-27T16:09:48.863Z,83.90
2019-04-27T16:12:18.154Z,83.90
2019-04-27T16:14:47.956Z,83.70
2019-04-27T16:17:18.026Z,84.50
2019-04-27T16:19:50.229Z,84.60
2019-04-27T16:22:18.434Z,85.10
2019-04-27T16:24:49.374Z,84.30
2019-04-27T16:27:18.087Z,83.50
2019-04-27T16:29:49.221Z,83.70
2019-04-27T16:32:18.149Z,83.90
2019-04-27T16:34:47.867Z,83.50
2019-04-27T16:37:22.382Z,84.00
2019-04-27T16:39:49.431Z,84.30
2019-04-27T16:42:18.693Z,84.40
2019-04-27T16:44:49.513Z,84.30
2019-04-27T16:47:24.172Z,84.70
2019-04-27T16:49:48.494Z,85.00
2019-04-27T16:52:19.286Z,85.80
2019-04-27T16:54:56.286Z,85.40
2019-04-27T16:57:20.194Z,85.40
2019-04-27T16:59:54.933Z,85.70
2019-04-27T17:02:23.620Z,86.10
2019-04-27T17:04:54.120Z,85.70
2019-04-27T17:07:20.155Z,85.90
2019-04-27T17:09:49.467Z,85.40
2019-04-27T17:12:18.601Z,85.80
2019-04-27T17:15:12.400Z,86.10
2019-04-27T17:17:50.779Z,86.90
2019-04-27T17:20:21.243Z,87.40
2019-04-27T17:22:51.947Z,88.10
2019-04-27T17:25:21.772Z,88.10
2019-04-27T17:28:03.674Z,88.10
2019-04-27T17:30:30.923Z,88.60
2019-04-27T17:33:10.214Z,88.20
2019-04-27T17:35:34.666Z,88.20
2019-04-27T17:38:12.450Z,88.20
2019-04-27T17:40:39.388Z,88.40
2019-04-27T17:43:09.965Z,88.50
2019-04-27T17:45:39.731Z,89.40
2019-04-27T17:48:10.799Z,89.60
2019-04-27T17:50:38.754Z,89.80
2019-04-27T17:53:08.061Z,90.30
2019-04-27T17:55:36.857Z,90.40
2019-04-27T17:58:06.583Z,91.00
2019-04-27T18:00:41.694Z,90.70
2019-04-27T18:03:08.194Z,90.80
2019-04-27T18:05:38.998Z,90.80
2019-04-27T18:08:09.299Z,91.30
2019-04-27T18:10:38.007Z,91.40
2019-04-27T18:13:08.507Z,91.50
2019-04-27T18:15:38.848Z,91.30
2019-04-27T18:18:09.342Z,91.30
2019-04-27T18:20:38.028Z,91.30
2019-04-27T18:23:23.466Z,91.40
2019-04-27T18:26:05.796Z,91.10
2019-04-27T18:28:39.036Z,91.20
2019-04-27T18:31:11.569Z,91.30
2019-04-27T18:33:40.290Z,91.00
2019-04-27T18:36:14.170Z,91.30
2019-04-27T18:38:39.860Z,91.30
2019-04-27T18:41:11.696Z,91.50
2019-04-27T18:43:45.872Z,91.50
2019-04-27T18:46:09.187Z,91.50
2019-04-27T18:48:50.267Z,91.80
2019-04-27T18:51:20.703Z,91.40
2019-04-27T18:53:48.073Z,91.50
2019-04-27T18:56:19.029Z,91.50
2019-04-27T18:58:47.762Z,91.50
2019-04-27T19:01:16.480Z,91.80
2019-04-27T19:03:45.187Z,91.90
2019-04-27T19:06:13.829Z,91.80
2019-04-27T19:08:43.463Z,92.00
2019-04-27T19:11:12.099Z,92.50
2019-04-27T19:13:40.705Z,93.00
2019-04-27T19:16:09.410Z,93.10
2019-04-27T19:18:39.882Z,93.10
2019-04-27T19:21:08.818Z,93.20
2019-04-27T19:23:38.259Z,93.40
2019-04-27T19:26:15.532Z,93.60
2019-04-27T19:28:54.795Z,93.30
2019-04-27T19:31:34.119Z,93.50
2019-04-27T19:34:03.841Z,93.40
2019-04-27T19:36:34.014Z,93.40
2019-04-27T19:39:08.753Z,93.40
2019-04-27T19:41:37.922Z,93.20
2019-04-27T19:44:09.891Z,93.40
2019-04-27T19:46:37.042Z,93.60
2019-04-27T19:49:05.694Z,93.90
2019-04-27T19:51:36.092Z,93.70
2019-04-27T19:54:06.298Z,93.70
2019-04-27T19:56:38.252Z,93.90
2019-04-27T19:59:08.955Z,94.10
2019-04-27T20:01:42.381Z,94.30
2019-04-27T20:04:28.141Z,94.30
2019-04-27T20:06:56.848Z,94.60
2019-04-27T20:09:27.198Z,94.50
2019-04-27T20:11:55.919Z,94.40
2019-04-27T20:14:24.617Z,94.30
2019-04-27T20:16:53.356Z,94.60
2019-04-27T20:19:21.987Z,94.40
2019-04-27T20:21:50.902Z,94.30
2019-04-27T20:24:19.601Z,94.40
2019-04-27T20:26:48.230Z,94.30
2019-04-27T20:29:16.886Z,94.50
2019-04-27T20:31:46.187Z,94.50
2019-04-27T20:34:14.930Z,94.50
2019-04-27T20:36:43.492Z,94.70
2019-04-27T20:39:12.395Z,94.90
2019-04-27T20:41:41.197Z,95.20
2019-04-27T20:44:12.375Z,95.90
2019-04-27T20:46:41.400Z,95.80
2019-04-27T20:49:14.218Z,96.00
2019-04-27T20:52:00.994Z,96.40
2019-04-27T20:54:32.662Z,96.50
2019-04-27T20:57:01.583Z,97.10
2019-04-27T20:59:30.341Z,97.20
2019-04-27T21:02:00.695Z,96.60
2019-04-27T21:04:30.998Z,96.50
2019-04-27T21:07:03.022Z,96.50
2019-04-27T21:09:32.320Z,96.90
2019-04-27T21:12:01.135Z,97.20
2019-04-27T21:14:31.922Z,97.40
2019-04-27T21:17:01.705Z,97.50
2019-04-27T21:19:32.014Z,97.50
2019-04-27T21:22:01.274Z,97.40
2019-04-27T21:24:31.164Z,96.50
2019-04-27T21:27:00.030Z,97.00
2019-04-27T21:29:28.644Z,97.00
2019-04-27T21:31:58.794Z,96.50
2019-04-27T21:34:27.429Z,96.50
2019-04-27T21:36:56.017Z,96.50
2019-04-27T21:39:24.646Z,96.20
2019-04-27T21:41:56.017Z,95.70
2019-04-27T21:44:27.068Z,95.20
2019-04-27T21:46:57.778Z,95.50
2019-04-27T21:49:25.993Z,95.80
2019-04-27T21:52:03.464Z,96.30
2019-04-27T21:54:33.818Z,96.20
2019-04-27T21:57:02.664Z,96.20
2019-04-27T21:59:31.377Z,95.40
2019-04-27T22:02:02.246Z,95.20
2019-04-27T22:04:31.525Z,95.30
2019-04-27T22:07:01.423Z,95.10
2019-04-27T22:09:30.249Z,95.10
2019-04-27T22:12:00.609Z,95.10
2019-04-27T22:14:35.501Z,95.10
2019-04-27T22:17:04.308Z,94.80
2019-04-27T22:19:33.563Z,94.70
2019-04-27T22:22:03.845Z,95.00
2019-04-27T22:24:37.347Z,95.40
2019-04-27T22:27:06.109Z,94.90
2019-04-27T22:29:37.029Z,95.10
2019-04-27T22:32:07.396Z,94.90
2019-04-27T22:34:43.733Z,95.10
2019-04-27T22:37:12.438Z,94.90
2019-04-27T22:39:45.654Z,94.80
2019-04-27T22:42:24.825Z,94.70
2019-04-27T22:44:58.662Z,94.90
2019-04-27T22:47:27.240Z,95.20
2019-04-27T22:49:55.824Z,94.90
2019-04-27T22:52:24.378Z,95.20
2019-04-27T22:54:53.020Z,94.80
2019-04-27T22:57:23.265Z,95.40
2019-04-27T22:59:53.571Z,95.70
2019-04-27T23:02:32.845Z,95.80
2019-04-27T23:05:02.661Z,96.30
2019-04-27T23:07:31.637Z,96.60
2019-04-27T23:10:01.593Z,96.70
2019-04-27T23:12:31.745Z,96.30
2019-04-27T23:15:00.358Z,96.20
2019-04-27T23:17:35.069Z,96.70
2019-04-27T23:20:05.436Z,97.10
2019-04-27T23:22:34.259Z,97.10
2019-04-27T23:25:03.077Z,96.80
2019-04-27T23:27:31.925Z,96.50
2019-04-27T23:30:01.344Z,96.50
2019-04-27T23:32:51.423Z,96.50
2019-04-27T23:35:20.228Z,96.20
2019-04-27T23:37:52.836Z,96.50
2019-04-27T23:40:21.995Z,96.10
2019-04-27T23:42:51.669Z,96.10
2019-04-27T23:45:22.329Z,96.20
2019-04-27T23:47:51.104Z,96.60
2019-04-27T23:50:21.749Z,96.80
2019-04-27T23:53:01.801Z,96.50
2019-04-27T23:55:32.256Z,96.80
2019-04-27T23:58:00.977Z,97.10
